createdAt,value
2023-01-07T00:01:21.054Z,101576.03
2023-01-07T00:03:48.858Z,101575.16
2023-01-07T00:06:19.805Z,101576.91
2023-01-07T00:08:48.345Z,101579.56
2023-01-07T00:11:20.320Z,101577.88
2023-01-07T00:13:49.278Z,101574.44
2023-01-07T00:16:18.335Z,101560.66
2023-01-07T00:18:45.133Z,101559.81
2023-01-07T00:21:14.954Z,101550.34
2023-01-07T00:23:43.260Z,101551.22
2023-01-07T00:26:11.335Z,101541.69
2023-01-07T00:28:40.892Z,101539.13
2023-01-07T00:31:13.221Z,101546.06
2023-01-07T00:33:55.529Z,101539.22
2023-01-07T00:36:24.621Z,101538.38
2023-01-07T00:38:59.028Z,101535.75
2023-01-07T00:41:25.760Z,101535.84
2023-01-07T00:43:52.462Z,101548.88
2023-01-07T00:46:19.699Z,101530.66
2023-01-07T00:48:46.617Z,101528.19
2023-01-07T00:51:15.135Z,101527.34
2023-01-07T00:53:42.328Z,101523.94
2023-01-07T00:56:14.792Z,101516.19
2023-01-07T00:58:42.128Z,101515.50
2023-01-07T01:01:10.720Z,101510.38
2023-01-07T01:03:38.732Z,101508.69
2023-01-07T01:06:16.094Z,101509.53
2023-01-07T01:08:45.133Z,101510.41
2023-01-07T01:11:14.142Z,101505.25
2023-01-07T01:13:41.855Z,101523.41
2023-01-07T01:16:11.386Z,101513.03
2023-01-07T01:18:38.918Z,101520.91
2023-01-07T01:21:11.068Z,101521.00
2023-01-07T01:23:38.286Z,101515.00
2023-01-07T01:26:06.989Z,101512.44
2023-01-07T01:28:34.586Z,101509.00
2023-01-07T01:31:02.163Z,101501.25
2023-01-07T01:33:28.874Z,101511.69
2023-01-07T01:35:55.538Z,101516.94
2023-01-07T01:38:22.275Z,101515.25
2023-01-07T01:40:48.976Z,101524.81
2023-01-07T01:43:47.213Z,101520.53
2023-01-07T01:46:22.005Z,101519.75
2023-01-07T01:49:02.603Z,101518.88
2023-01-07T01:51:34.887Z,101523.25
2023-01-07T01:54:06.420Z,101519.84
2023-01-07T01:56:37.894Z,101512.94
2023-01-07T01:59:11.973Z,101514.72
2023-01-07T02:01:38.949Z,101509.56
2023-01-07T02:04:09.876Z,101512.16
2023-01-07T02:06:43.085Z,101519.09
2023-01-07T02:09:12.672Z,101527.84
2023-01-07T02:12:21.183Z,101512.28
2023-01-07T02:15:33.341Z,101507.97
2023-01-07T02:18:42.590Z,101507.13
2023-01-07T02:21:27.320Z,101511.47
2023-01-07T02:24:21.768Z,101509.75
2023-01-07T02:27:14.240Z,101506.34
2023-01-07T02:30:11.276Z,101508.97
2023-01-07T02:32:50.315Z,101495.13
2023-01-07T02:35:51.008Z,101496.91
2023-01-07T02:38:35.521Z,101489.13
2023-01-07T02:41:02.116Z,101487.41
2023-01-07T02:43:52.827Z,101488.34
2023-01-07T02:46:30.652Z,101484.91
2023-01-07T02:49:04.304Z,101484.09
2023-01-07T02:51:39.107Z,101477.19
2023-01-07T02:54:32.152Z,101482.44
2023-01-07T02:57:01.549Z,101464.28
2023-01-07T02:59:40.261Z,101459.06
2023-01-07T03:02:26.476Z,101465.22
2023-01-07T03:05:02.103Z,101452.25
2023-01-07T03:08:04.313Z,101454.03
2023-01-07T03:10:40.306Z,101451.47
2023-01-07T03:13:39.105Z,101452.34
2023-01-07T03:16:26.653Z,101459.31
2023-01-07T03:19:01.031Z,101445.47
2023-01-07T03:21:30.142Z,101442.88
2023-01-07T03:23:58.785Z,101435.16
2023-01-07T03:26:32.724Z,101436.91
2023-01-07T03:29:01.704Z,101428.25
2023-01-07T03:31:30.425Z,101424.81
2023-01-07T03:34:03.238Z,101429.22
2023-01-07T03:36:46.868Z,101421.44
2023-01-07T03:39:14.997Z,101424.91
2023-01-07T03:42:00.212Z,101424.94
2023-01-07T03:44:26.911Z,101427.59
2023-01-07T03:46:53.999Z,101420.66
2023-01-07T03:49:20.678Z,101410.25
2023-01-07T03:51:49.555Z,101409.41
2023-01-07T03:54:16.428Z,101402.53
2023-01-07T03:56:43.115Z,101408.59
2023-01-07T03:59:09.871Z,101404.28
2023-01-07T04:01:36.674Z,101406.06
2023-01-07T04:04:03.689Z,101392.22
2023-01-07T04:06:30.597Z,101403.56
2023-01-07T04:08:57.298Z,101409.66
2023-01-07T04:11:24.428Z,101404.44
2023-01-07T04:13:51.181Z,101401.91
2023-01-07T04:16:17.974Z,101406.28
2023-01-07T04:18:44.680Z,101395.00
2023-01-07T04:21:11.345Z,101405.44
2023-01-07T04:23:37.988Z,101396.78
2023-01-07T04:26:04.947Z,101398.53
2023-01-07T04:28:31.592Z,101401.19
2023-01-07T04:31:01.764Z,101403.81
2023-01-07T04:33:28.483Z,101393.47
2023-01-07T04:35:55.340Z,101403.03
2023-01-07T04:38:22.052Z,101398.69
2023-01-07T04:40:48.746Z,101391.81
2023-01-07T04:43:15.572Z,101388.38
2023-01-07T04:45:42.331Z,101385.84
2023-01-07T04:48:09.086Z,101392.84
2023-01-07T04:50:35.755Z,101394.59
2023-01-07T04:53:02.504Z,101402.50
2023-01-07T04:55:29.302Z,101387.75
2023-01-07T04:57:55.966Z,101384.31
2023-01-07T05:00:22.873Z,101386.09
2023-01-07T05:02:49.744Z,101387.00
2023-01-07T05:05:16.525Z,101373.13
2023-01-07T05:07:43.182Z,101379.28
2023-01-07T05:10:10.334Z,101365.41
2023-01-07T05:12:38.428Z,101368.94
2023-01-07T05:15:06.626Z,101371.56
2023-01-07T05:17:33.530Z,101364.66
2023-01-07T05:20:00.232Z,101366.41
2023-01-07T05:22:27.013Z,101358.66
2023-01-07T05:24:53.674Z,101360.41
2023-01-07T05:27:20.368Z,101354.34
2023-01-07T05:29:47.027Z,101351.81
2023-01-07T05:32:13.772Z,101351.00
2023-01-07T05:34:40.444Z,101355.34
2023-01-07T05:37:07.110Z,101363.22
2023-01-07T05:39:33.842Z,101358.03
2023-01-07T05:42:00.606Z,101359.84
2023-01-07T05:44:27.284Z,101361.63
2023-01-07T05:46:53.958Z,101374.72
2023-01-07T05:49:20.679Z,101371.25
2023-01-07T05:51:47.384Z,101376.53
2023-01-07T05:54:14.135Z,101380.94
2023-01-07T05:56:40.953Z,101381.00
2023-01-07T05:59:07.665Z,101379.28
2023-01-07T06:01:34.304Z,101381.94
2023-01-07T06:04:01.023Z,101378.53
2023-01-07T06:06:27.680Z,101387.28
2023-01-07T06:08:54.377Z,101382.97
2023-01-07T06:11:21.028Z,101383.00
2023-01-07T06:13:47.683Z,101375.22
2023-01-07T06:16:14.535Z,101394.38
2023-01-07T06:18:41.321Z,101392.66
2023-01-07T06:21:08.234Z,101390.97
2023-01-07T06:23:35.276Z,101390.13
2023-01-07T06:26:01.961Z,101384.97
2023-01-07T06:28:29.275Z,101391.06
2023-01-07T06:30:56.055Z,101387.63
2023-01-07T06:33:22.848Z,101380.75
2023-01-07T06:35:49.567Z,101386.84
2023-01-07T06:38:16.220Z,101385.97
2023-01-07T06:40:44.754Z,101379.94
2023-01-07T06:43:11.766Z,101386.03
2023-01-07T06:45:40.722Z,101386.97
2023-01-07T06:48:08.161Z,101386.09
2023-01-07T06:50:34.851Z,101394.84
2023-01-07T06:53:01.526Z,101387.91
2023-01-07T06:55:28.186Z,101397.53
2023-01-07T06:57:54.877Z,101392.31
2023-01-07T07:00:21.554Z,101386.22
2023-01-07T07:02:48.355Z,101386.28
2023-01-07T07:05:15.517Z,101388.06
2023-01-07T07:07:42.241Z,101388.09
2023-01-07T07:10:09.285Z,101390.75
2023-01-07T07:12:38.154Z,101385.53
2023-01-07T07:15:06.174Z,101384.69
2023-01-07T07:17:32.863Z,101388.22
2023-01-07T07:19:59.645Z,101392.56
2023-01-07T07:22:26.327Z,101399.56
2023-01-07T07:24:53.041Z,101391.75
2023-01-07T07:27:19.726Z,101390.94
2023-01-07T07:29:46.452Z,101403.13
2023-01-07T07:32:13.111Z,101407.50
2023-01-07T07:34:39.772Z,101402.31
2023-01-07T07:37:06.410Z,101404.06
2023-01-07T07:39:33.833Z,101402.38
2023-01-07T07:42:05.157Z,101402.41
2023-01-07T07:44:31.852Z,101403.28
2023-01-07T07:46:58.616Z,101392.88
2023-01-07T07:49:25.356Z,101378.09
2023-01-07T07:51:52.014Z,101394.66
2023-01-07T07:54:23.729Z,101389.44
2023-01-07T07:56:50.668Z,101380.75
2023-01-07T07:59:17.318Z,101386.03
2023-01-07T08:01:44.060Z,101389.50
2023-01-07T08:04:10.822Z,101385.16
2023-01-07T08:06:37.535Z,101383.41
2023-01-07T08:09:04.268Z,101386.09
2023-01-07T08:11:30.953Z,101380.84
2023-01-07T08:13:57.681Z,101392.22
2023-01-07T08:16:24.745Z,101380.88
2023-01-07T08:18:51.426Z,101387.88
2023-01-07T08:21:18.104Z,101391.34
2023-01-07T08:23:44.838Z,101390.50
2023-01-07T08:26:11.735Z,101393.16
2023-01-07T08:28:39.068Z,101387.94
2023-01-07T08:31:09.912Z,101377.50
2023-01-07T08:33:38.697Z,101387.06
2023-01-07T08:36:18.091Z,101395.81
2023-01-07T08:38:54.164Z,101401.03
2023-01-07T08:41:24.751Z,101398.44
2023-01-07T08:43:51.594Z,101394.13
2023-01-07T08:46:18.439Z,101382.84
2023-01-07T08:48:45.140Z,101376.81
2023-01-07T08:51:11.845Z,101375.06
2023-01-07T08:53:38.580Z,101369.91
2023-01-07T08:56:05.551Z,101366.41
2023-01-07T08:58:32.337Z,101367.34
2023-01-07T09:01:03.381Z,101358.59
2023-01-07T09:03:30.191Z,101366.47
2023-01-07T09:05:56.913Z,101353.44
2023-01-07T09:08:23.575Z,101355.19
2023-01-07T09:10:50.470Z,101350.88
2023-01-07T09:13:17.637Z,101363.91
2023-01-07T09:15:45.363Z,101356.09
2023-01-07T09:18:12.076Z,101365.72
2023-01-07T09:20:38.897Z,101356.16
2023-01-07T09:23:05.819Z,101355.31
2023-01-07T09:25:32.477Z,101362.28
2023-01-07T09:27:59.141Z,101352.72
2023-01-07T09:30:25.830Z,101364.94
2023-01-07T09:32:52.488Z,101358.91
2023-01-07T09:35:19.417Z,101356.28
2023-01-07T09:37:46.078Z,101364.16
2023-01-07T09:40:28.993Z,101370.28
2023-01-07T09:43:13.857Z,101382.50
2023-01-07T09:46:08.938Z,101365.09
2023-01-07T09:48:42.438Z,101359.88
2023-01-07T09:51:45.654Z,101365.97
2023-01-07T09:54:28.631Z,101350.34
2023-01-07T09:56:55.438Z,101346.00
2023-01-07T09:59:22.172Z,101369.50
2023-01-07T10:02:25.655Z,101353.03
2023-01-07T10:05:14.916Z,101348.66
2023-01-07T10:08:31.133Z,101353.00
2023-01-07T10:11:04.796Z,101347.78
2023-01-07T10:13:49.788Z,101351.31
2023-01-07T10:16:36.669Z,101355.69
2023-01-07T10:19:52.890Z,101347.84
2023-01-07T10:22:30.781Z,101357.41
2023-01-07T10:25:02.779Z,101357.41
2023-01-07T10:27:34.371Z,101360.94
2023-01-07T10:30:05.142Z,101361.81
2023-01-07T10:32:36.936Z,101366.16
2023-01-07T10:35:06.928Z,101366.16
2023-01-07T10:37:37.106Z,101372.31
2023-01-07T10:40:12.575Z,101367.09
2023-01-07T10:43:07.175Z,101373.22
2023-01-07T10:46:10.302Z,101350.56
2023-01-07T10:48:44.352Z,101360.13
2023-01-07T10:51:13.717Z,101364.47
2023-01-07T10:54:08.112Z,101352.28
2023-01-07T10:56:58.278Z,101353.22
2023-01-07T10:59:25.859Z,101360.16
2023-01-07T11:01:55.198Z,101349.72
2023-01-07T11:04:22.732Z,101358.44
2023-01-07T11:07:08.409Z,101354.94
2023-01-07T11:09:40.680Z,101361.09
2023-01-07T11:12:17.226Z,101352.34
2023-01-07T11:14:44.730Z,101347.16
2023-01-07T11:17:42.063Z,101337.59
2023-01-07T11:20:09.519Z,101341.03
2023-01-07T11:22:38.125Z,101343.69
2023-01-07T11:25:29.260Z,101338.47
2023-01-07T11:28:01.616Z,101335.84
2023-01-07T11:30:32.276Z,101331.53
2023-01-07T11:33:02.957Z,101334.16
2023-01-07T11:35:29.718Z,101336.81
2023-01-07T11:37:57.867Z,101321.19
2023-01-07T11:40:28.666Z,101327.28
2023-01-07T11:42:56.788Z,101315.13
2023-01-07T11:45:33.620Z,101316.00
2023-01-07T11:48:00.309Z,101320.41
2023-01-07T11:50:54.719Z,101316.06
2023-01-07T11:53:30.017Z,101310.84
2023-01-07T11:56:01.233Z,101309.16
2023-01-07T11:58:31.770Z,101312.66
2023-01-07T12:01:07.651Z,101304.81
2023-01-07T12:03:40.768Z,101314.44
2023-01-07T12:06:23.781Z,101317.91
2023-01-07T12:08:52.472Z,101312.69
2023-01-07T12:11:19.353Z,101310.06
2023-01-07T12:13:55.606Z,101304.00
2023-01-07T12:16:28.632Z,101297.88
2023-01-07T12:19:01.219Z,101300.53
2023-01-07T12:21:31.516Z,101298.78
2023-01-07T12:24:29.869Z,101306.59
2023-01-07T12:27:27.500Z,101291.75
2023-01-07T12:30:18.644Z,101292.63
2023-01-07T12:33:13.132Z,101303.06
2023-01-07T12:35:43.361Z,101303.06
2023-01-07T12:38:17.726Z,101310.03
2023-01-07T12:40:58.910Z,101303.06
2023-01-07T12:43:39.307Z,101310.03
2023-01-07T12:46:11.578Z,101317.00
2023-01-07T12:48:43.440Z,101325.72
2023-01-07T12:51:43.453Z,101308.28
2023-01-07T12:54:22.916Z,101304.84
2023-01-07T12:57:02.521Z,101313.56
2023-01-07T12:59:46.569Z,101310.06
2023-01-07T13:02:14.467Z,101297.88
2023-01-07T13:04:41.178Z,101306.63
2023-01-07T13:07:10.848Z,101318.81
2023-01-07T13:09:43.313Z,101313.59
2023-01-07T13:12:41.449Z,101304.88
2023-01-07T13:15:31.315Z,101290.97
2023-01-07T13:18:03.355Z,101295.44
2023-01-07T13:21:03.261Z,101302.50
2023-01-07T13:23:38.899Z,101299.88
2023-01-07T13:26:09.808Z,101281.59
2023-01-07T13:28:57.265Z,101278.94
2023-01-07T13:32:02.311Z,101278.94
2023-01-07T13:34:31.564Z,101281.53
2023-01-07T13:37:24.356Z,101278.03
2023-01-07T13:40:22.649Z,101267.56
2023-01-07T13:43:00.423Z,101279.75
2023-01-07T13:45:36.431Z,101284.09
2023-01-07T13:48:06.316Z,101287.59
2023-01-07T13:50:41.663Z,101282.34
2023-01-07T13:53:14.477Z,101275.38
2023-01-07T13:55:46.380Z,101282.34
2023-01-07T13:58:31.412Z,101284.06
2023-01-07T14:01:10.896Z,101272.72
2023-01-07T14:03:58.921Z,101273.63
2023-01-07T14:06:57.949Z,101271.91
2023-01-07T14:09:37.505Z,101270.13
2023-01-07T14:12:07.025Z,101271.91
2023-01-07T14:14:55.890Z,101276.22
2023-01-07T14:17:37.090Z,101283.22
2023-01-07T14:20:42.676Z,101287.59
2023-01-07T14:23:33.747Z,101278.00
2023-01-07T14:26:18.993Z,101282.34
2023-01-07T14:29:13.453Z,101282.34
2023-01-07T14:31:40.380Z,101281.50
2023-01-07T14:34:18.660Z,101287.59
2023-01-07T14:37:08.646Z,101284.13
2023-01-07T14:39:46.270Z,101272.81
2023-01-07T14:42:18.995Z,101275.44
2023-01-07T14:44:47.147Z,101271.94
2023-01-07T14:47:34.933Z,101269.38
2023-01-07T14:50:08.410Z,101266.75
2023-01-07T14:52:50.354Z,101270.25
2023-01-07T14:55:25.835Z,101277.22
2023-01-07T14:58:11.345Z,101271.16
2023-01-07T15:01:08.240Z,101277.25
2023-01-07T15:03:48.567Z,101270.28
2023-01-07T15:06:24.708Z,101266.78
2023-01-07T15:09:45.309Z,101264.22
2023-01-07T15:12:42.260Z,101261.56
2023-01-07T15:15:35.917Z,101255.47
2023-01-07T15:18:07.384Z,101263.31
2023-01-07T15:21:02.202Z,101249.38
2023-01-07T15:24:14.835Z,101255.47
2023-01-07T15:26:50.369Z,101272.88
2023-01-07T15:29:39.236Z,101262.44
2023-01-07T15:32:21.081Z,101261.56
2023-01-07T15:34:47.896Z,101265.09
2023-01-07T15:37:16.205Z,101262.47
2023-01-07T15:39:54.935Z,101261.59
2023-01-07T15:42:24.917Z,101262.47
2023-01-07T15:44:56.462Z,101258.97
2023-01-07T15:47:30.284Z,101250.31
2023-01-07T15:49:56.937Z,101246.81
2023-01-07T15:52:28.179Z,101246.84
2023-01-07T15:54:54.844Z,101252.94
2023-01-07T15:57:31.929Z,101259.91
2023-01-07T15:59:58.850Z,101256.47
2023-01-07T16:02:29.953Z,101256.47
2023-01-07T16:05:01.976Z,101260.81
2023-01-07T16:07:33.014Z,101254.72
2023-01-07T16:10:00.375Z,101260.81
2023-01-07T16:12:31.467Z,101257.38
2023-01-07T16:14:58.411Z,101249.53
2023-01-07T16:17:25.909Z,101251.31
2023-01-07T16:20:09.692Z,101243.47
2023-01-07T16:22:40.235Z,101248.69
2023-01-07T16:25:13.476Z,101238.22
2023-01-07T16:27:40.403Z,101240.84
2023-01-07T16:30:16.991Z,101248.69
2023-01-07T16:32:45.458Z,101252.22
2023-01-07T16:35:19.523Z,101242.66
2023-01-07T16:37:47.677Z,101248.75
2023-01-07T16:40:28.074Z,101235.69
2023-01-07T16:42:54.743Z,101252.28
2023-01-07T16:45:27.703Z,101242.69
2023-01-07T16:48:00.741Z,101237.44
2023-01-07T16:50:35.901Z,101237.44
2023-01-07T16:53:02.630Z,101230.47
2023-01-07T16:55:51.557Z,101230.50
2023-01-07T16:58:34.368Z,101221.75
2023-01-07T17:01:02.624Z,101219.16
2023-01-07T17:03:48.741Z,101221.75
2023-01-07T17:06:22.971Z,101222.66
2023-01-07T17:08:51.666Z,101213.94
2023-01-07T17:11:27.690Z,101216.56
2023-01-07T17:13:54.397Z,101205.25
2023-01-07T17:16:25.596Z,101195.66
2023-01-07T17:18:52.869Z,101203.50
2023-01-07T17:21:42.515Z,101206.13
2023-01-07T17:24:41.802Z,101206.13
2023-01-07T17:27:22.633Z,101206.13
2023-01-07T17:29:50.045Z,101210.50
2023-01-07T17:32:17.113Z,101208.75
2023-01-07T17:34:43.758Z,101215.75
2023-01-07T17:37:15.089Z,101211.38
2023-01-07T17:39:42.436Z,101207.91
2023-01-07T17:42:48.108Z,101213.13
2023-01-07T17:45:17.028Z,101214.03
2023-01-07T17:47:44.066Z,101217.53
2023-01-07T17:50:13.835Z,101215.78
2023-01-07T17:52:43.857Z,101227.09
2023-01-07T17:55:29.049Z,101218.38
2023-01-07T17:57:55.895Z,101214.94
2023-01-07T18:00:25.869Z,101212.31
2023-01-07T18:02:52.885Z,101197.50
2023-01-07T18:05:22.422Z,101196.63
2023-01-07T18:07:50.461Z,101196.63
2023-01-07T18:10:20.182Z,101191.38
2023-01-07T18:12:47.201Z,101196.63
2023-01-07T18:15:19.857Z,101200.13
2023-01-07T18:17:47.210Z,101199.25
2023-01-07T18:20:14.358Z,101196.66
2023-01-07T18:22:42.059Z,101201.88
2023-01-07T18:25:20.848Z,101194.94
2023-01-07T18:27:49.134Z,101196.66
2023-01-07T18:30:18.784Z,101195.78
2023-01-07T18:32:46.028Z,101194.06
2023-01-07T18:35:13.094Z,101191.44
2023-01-07T18:37:40.408Z,101191.44
2023-01-07T18:40:09.377Z,101198.44
2023-01-07T18:42:36.715Z,101196.69
2023-01-07T18:45:05.008Z,101188.81
2023-01-07T18:47:31.726Z,101185.34
2023-01-07T18:49:58.399Z,101185.34
2023-01-07T18:52:25.180Z,101184.50
2023-01-07T18:54:51.949Z,101184.50
2023-01-07T18:57:18.710Z,101184.50
2023-01-07T18:59:45.362Z,101187.13
2023-01-07T19:02:20.604Z,101181.88
2023-01-07T19:04:48.179Z,101178.41
2023-01-07T19:07:15.140Z,101174.91
2023-01-07T19:09:42.010Z,101182.75
2023-01-07T19:12:09.109Z,101163.56
2023-01-07T19:14:35.990Z,101173.19
2023-01-07T19:17:02.866Z,101165.34
2023-01-07T19:19:34.307Z,101167.97
2023-01-07T19:22:10.671Z,101149.66
2023-01-07T19:24:37.339Z,101149.66
2023-01-07T19:27:04.101Z,101151.38
2023-01-07T19:29:30.757Z,101149.63
2023-01-07T19:31:57.451Z,101143.53
2023-01-07T19:34:25.290Z,101141.78
2023-01-07T19:36:57.447Z,101149.63
2023-01-07T19:39:24.399Z,101155.78
2023-01-07T19:41:51.135Z,101154.88
2023-01-07T19:44:18.256Z,101154.03
2023-01-07T19:46:47.021Z,101156.66
2023-01-07T19:49:13.722Z,101146.19
2023-01-07T19:51:41.958Z,101153.16
2023-01-07T19:54:12.765Z,101148.78
2023-01-07T19:56:40.702Z,101159.25
2023-01-07T19:59:07.373Z,101143.56
2023-01-07T20:01:34.344Z,101151.41
2023-01-07T20:04:01.219Z,101150.53
2023-01-07T20:06:30.223Z,101146.19
2023-01-07T20:09:02.010Z,101154.91
2023-01-07T20:11:28.753Z,101146.19
2023-01-07T20:13:55.424Z,101148.81
2023-01-07T20:16:24.141Z,101132.25
2023-01-07T20:18:53.629Z,101132.25
2023-01-07T20:21:23.489Z,101134.00
2023-01-07T20:23:50.265Z,101131.38
2023-01-07T20:26:23.057Z,101127.00
2023-01-07T20:28:50.120Z,101140.09
2023-01-07T20:31:18.308Z,101129.63
2023-01-07T20:33:45.528Z,101126.13
2023-01-07T20:36:14.765Z,101130.50
2023-01-07T20:38:42.921Z,101136.63
2023-01-07T20:41:14.348Z,101127.91
2023-01-07T20:43:41.506Z,101129.63
2023-01-07T20:46:09.401Z,101128.78
2023-01-07T20:48:36.655Z,101121.78
2023-01-07T20:51:07.774Z,101121.81
2023-01-07T20:53:36.618Z,101111.34
2023-01-07T20:56:03.971Z,101117.44
2023-01-07T20:58:32.602Z,101114.84
2023-01-07T21:01:03.393Z,101111.34
2023-01-07T21:03:30.180Z,101101.75
2023-01-07T21:05:57.580Z,101100.91
2023-01-07T21:08:25.155Z,101100.91
2023-01-07T21:10:52.518Z,101112.25
2023-01-07T21:13:20.082Z,101092.19
2023-01-07T21:15:46.842Z,101098.28
2023-01-07T21:18:13.507Z,101098.28
2023-01-07T21:20:40.956Z,101093.91
2023-01-07T21:23:07.762Z,101086.94
2023-01-07T21:25:34.847Z,101092.16
2023-01-07T21:28:02.195Z,101086.94
2023-01-07T21:30:29.333Z,101082.56
2023-01-07T21:32:56.190Z,101083.47
2023-01-07T21:35:23.027Z,101076.50
2023-01-07T21:37:53.607Z,101082.59
2023-01-07T21:40:21.350Z,101077.38
2023-01-07T21:42:48.044Z,101079.13
2023-01-07T21:45:15.084Z,101077.38
2023-01-07T21:47:42.322Z,101075.63
2023-01-07T21:50:09.540Z,101083.50
2023-01-07T21:52:37.295Z,101067.75
2023-01-07T21:55:04.759Z,101058.19
2023-01-07T21:57:31.513Z,101055.59
2023-01-07T21:59:58.186Z,101048.59
2023-01-07T22:02:24.865Z,101047.72
2023-01-07T22:04:51.635Z,101054.69
2023-01-07T22:07:19.945Z,101048.63
2023-01-07T22:09:46.879Z,101051.22
2023-01-07T22:12:14.789Z,101058.19
2023-01-07T22:14:41.628Z,101046.84
2023-01-07T22:17:10.514Z,101035.53
2023-01-07T22:19:37.235Z,101044.25
2023-01-07T22:22:03.935Z,101046.88
2023-01-07T22:24:30.637Z,101038.16
2023-01-07T22:26:57.476Z,101036.41
2023-01-07T22:29:24.466Z,101038.13
2023-01-07T22:31:52.959Z,101046.00
2023-01-07T22:34:19.868Z,101039.88
2023-01-07T22:37:12.444Z,101033.78
2023-01-07T22:39:43.278Z,101035.53
2023-01-07T22:42:15.063Z,101023.31
2023-01-07T22:44:50.681Z,101018.06
2023-01-07T22:47:22.191Z,101017.19
2023-01-07T22:49:50.173Z,101021.56
2023-01-07T22:52:16.997Z,101018.94
2023-01-07T22:54:43.913Z,101021.56
2023-01-07T22:57:12.043Z,101008.47
2023-01-07T22:59:39.030Z,101016.31
2023-01-07T23:02:06.159Z,101004.13
2023-01-07T23:04:32.887Z,101006.72
2023-01-07T23:06:59.658Z,101008.47
2023-01-07T23:09:26.347Z,101001.50
2023-01-07T23:11:54.926Z,100998.91
2023-01-07T23:14:23.219Z,100998.91
2023-01-07T23:16:51.187Z,100998.00
2023-01-07T23:19:19.543Z,100991.88
2023-01-07T23:21:47.702Z,100993.66
2023-01-07T23:24:15.356Z,100987.53
2023-01-07T23:26:42.883Z,100982.28
2023-01-07T23:29:10.004Z,100986.66
2023-01-07T23:31:37.799Z,100986.66
2023-01-07T23:34:05.488Z,100980.56
2023-01-07T23:36:32.739Z,100983.19
2023-01-07T23:38:59.476Z,100974.44
2023-01-07T23:41:26.154Z,100972.72
2023-01-07T23:43:52.815Z,100966.59
2023-01-07T23:46:19.591Z,100964.00
2023-01-07T23:48:46.611Z,100948.28
2023-01-07T23:51:19.273Z,100945.69
2023-01-07T23:53:46.309Z,100955.25
2023-01-07T23:56:14.403Z,100934.34
2023-01-07T23:58:41.081Z,100940.44
